createdAt,value
2023-11-22T00:02:42.566Z,1006.6
2023-11-22T00:03:58.916Z,1006.6
2023-11-22T00:05:15.273Z,1006.6
2023-11-22T00:07:47.978Z,1006.5
2023-11-22T00:09:04.339Z,1006.5
2023-11-22T00:10:20.698Z,1006.5
2023-11-22T00:11:37.066Z,1006.5
2023-11-22T00:14:09.763Z,1006.6
2023-11-22T00:16:41.529Z,1006.6
2023-11-22T00:19:14.236Z,1006.5
2023-11-22T00:20:30.606Z,1006.5
2023-11-22T00:21:46.957Z,1006.6
2023-11-22T00:23:03.307Z,1006.5
2023-11-22T00:24:19.662Z,1006.7
2023-11-22T00:25:36.034Z,1006.6
2023-11-22T00:26:52.390Z,1006.7
2023-11-22T00:31:57.803Z,1006.6
2023-11-22T00:34:29.568Z,1006.7
2023-11-22T00:37:02.282Z,1006.9
2023-11-22T00:38:18.632Z,1006.8
2023-11-22T00:39:34.992Z,1006.9
2023-11-22T00:42:07.718Z,1006.9
2023-11-22T00:43:24.060Z,1006.9
2023-11-22T00:44:40.424Z,1006.9
2023-11-22T00:45:56.779Z,1006.9
2023-11-22T00:48:29.484Z,1007
2023-11-22T00:49:44.901Z,1006.8
2023-11-22T00:51:01.257Z,1006.9
2023-11-22T00:54:50.328Z,1007
2023-11-22T00:57:23.039Z,1007.1
2023-11-22T00:59:55.737Z,1007.1
2023-11-22T01:01:12.096Z,1007.1
2023-11-22T01:05:01.168Z,1007.2
2023-11-22T01:06:16.587Z,1007.1
2023-11-22T01:07:32.943Z,1007.1
2023-11-22T01:11:22.000Z,1007
2023-11-22T01:12:38.351Z,1007
2023-11-22T01:13:54.722Z,1007.1
2023-11-22T01:15:11.074Z,1007.2
2023-11-22T01:16:27.422Z,1007.2
2023-11-22T01:19:00.135Z,1007.2
2023-11-22T01:20:16.490Z,1007.2
2023-11-22T01:22:49.201Z,1007.2
2023-11-22T01:24:05.569Z,1007.2
2023-11-22T01:25:21.923Z,1007.3
2023-11-22T01:27:53.678Z,1007
2023-11-22T01:29:10.031Z,1007.2
2023-11-22T01:30:26.389Z,1007.1
2023-11-22T01:31:42.758Z,1007.1
2023-11-22T01:34:15.473Z,1007.1
2023-11-22T01:35:31.825Z,1007.2
2023-11-22T01:39:20.896Z,1007.2
2023-11-22T01:40:37.243Z,1007.3
2023-11-22T01:41:53.613Z,1007.3
2023-11-22T01:43:09.975Z,1007.3
2023-11-22T01:45:42.670Z,1007.3
2023-11-22T01:46:58.080Z,1007.4
2023-11-22T01:48:14.428Z,1007.3
2023-11-22T01:50:47.143Z,1007.3
2023-11-22T01:52:03.507Z,1007.2
2023-11-22T01:53:19.855Z,1007.3
2023-11-22T01:54:36.213Z,1007.2
2023-11-22T01:57:08.939Z,1007.3
2023-11-22T01:59:41.657Z,1007.4
2023-11-22T02:02:14.357Z,1007.4
2023-11-22T02:03:30.717Z,1007.5
2023-11-22T02:04:46.125Z,1007.4
2023-11-22T02:06:02.476Z,1007.5
2023-11-22T02:08:35.193Z,1007.5
2023-11-22T02:09:51.553Z,1007.4
2023-11-22T02:11:07.908Z,1007.5
2023-11-22T02:13:40.616Z,1007.5
2023-11-22T02:14:56.969Z,1007.5
2023-11-22T02:16:13.324Z,1007.5
2023-11-22T02:17:29.685Z,1007.5
2023-11-22T02:20:02.389Z,1007.6
2023-11-22T02:21:17.796Z,1007.6
2023-11-22T02:22:34.167Z,1007.6
2023-11-22T02:25:06.869Z,1007.6
2023-11-22T02:26:23.221Z,1007.7
2023-11-22T02:27:38.642Z,1007.7
2023-11-22T02:28:54.992Z,1007.8
2023-11-22T02:30:11.360Z,1007.8
2023-11-22T02:31:27.714Z,1007.7
2023-11-22T02:32:44.078Z,1007.7
2023-11-22T02:34:00.425Z,1007.7
2023-11-22T02:35:16.780Z,1007.7
2023-11-22T02:36:33.144Z,1007.7
2023-11-22T02:37:49.488Z,1007.7
2023-11-22T02:39:05.856Z,1007.7
2023-11-22T02:40:22.216Z,1007.8
2023-11-22T02:41:38.576Z,1007.8
2023-11-22T02:42:54.928Z,1007.8
2023-11-22T02:44:10.329Z,1007.8
2023-11-22T02:45:26.681Z,1007.8
2023-11-22T02:46:42.116Z,1007.8
2023-11-22T02:47:58.593Z,1007.8
2023-11-22T02:49:14.952Z,1007.8
2023-11-22T02:50:31.305Z,1007.8
2023-11-22T02:51:47.665Z,1007.9
2023-11-22T02:53:04.015Z,1007.9
2023-11-22T02:54:20.368Z,1007.9
2023-11-22T02:55:36.729Z,1007.9
2023-11-22T02:56:53.077Z,1007.9
2023-11-22T02:58:09.440Z,1008
2023-11-22T02:59:25.808Z,1008
2023-11-22T03:00:41.221Z,1008.1
2023-11-22T03:01:56.000Z,1008.1
2023-11-22T03:03:12.992Z,1008.1
2023-11-22T03:04:29.347Z,1008
2023-11-22T03:05:45.690Z,1008
2023-11-22T03:07:02.053Z,1008.1
2023-11-22T03:08:18.404Z,1008
2023-11-22T03:09:34.769Z,1008.1
2023-11-22T03:10:51.118Z,1008.1
2023-11-22T03:12:07.474Z,1008.1
2023-11-22T03:13:23.835Z,1008
2023-11-22T03:14:40.210Z,1008.1
2023-11-22T03:15:56.541Z,1008.1
2023-11-22T03:17:12.909Z,1008.2
2023-11-22T03:18:28.309Z,1008.2
2023-11-22T03:19:44.667Z,1008.2
2023-11-22T03:22:17.369Z,1008.3
2023-11-22T03:23:33.727Z,1008.2
2023-11-22T03:24:50.097Z,1008.2
2023-11-22T03:26:06.452Z,1008.2
2023-11-22T03:27:22.803Z,1008.3
2023-11-22T03:28:39.170Z,1008.3
2023-11-22T03:29:55.521Z,1008.4
2023-11-22T03:31:11.886Z,1008.5
2023-11-22T03:33:44.586Z,1008.6
2023-11-22T03:35:00.946Z,1008.7
2023-11-22T03:37:32.701Z,1008.7
2023-11-22T03:38:48.126Z,1008.7
2023-11-22T03:40:03.545Z,1008.7
2023-11-22T03:41:19.893Z,1008.8
2023-11-22T03:42:36.256Z,1008.9
2023-11-22T03:45:08.969Z,1008.9
2023-11-22T03:46:25.330Z,1008.9
2023-11-22T03:48:58.045Z,1009
2023-11-22T03:50:14.388Z,1008.9
2023-11-22T03:51:30.738Z,1009
2023-11-22T03:52:47.109Z,1008.9
2023-11-22T03:54:02.529Z,1008.9
2023-11-22T03:57:51.603Z,1009
2023-11-22T03:59:06.999Z,1009
2023-11-22T04:00:23.358Z,1009
2023-11-22T04:02:56.064Z,1008.9
2023-11-22T04:04:12.440Z,1008.9
2023-11-22T04:05:28.797Z,1008.9
2023-11-22T04:09:17.851Z,1009
2023-11-22T04:10:34.215Z,1009.1
2023-11-22T04:11:50.565Z,1009.1
2023-11-22T04:13:06.937Z,1009.1
2023-11-22T04:14:23.285Z,1009.1
2023-11-22T04:15:38.685Z,1009.1
2023-11-22T04:16:55.042Z,1009.1
2023-11-22T04:19:27.759Z,1009.2
2023-11-22T04:20:44.117Z,1009.2
2023-11-22T04:22:00.471Z,1009.3
2023-11-22T04:23:16.836Z,1009.3
2023-11-22T04:25:49.532Z,1009.2
2023-11-22T04:27:05.899Z,1009.3
2023-11-22T04:28:22.249Z,1009.3
2023-11-22T04:29:38.614Z,1009.2
2023-11-22T04:30:54.970Z,1009.3
2023-11-22T04:32:11.320Z,1009.3
2023-11-22T04:33:26.740Z,1009.3
2023-11-22T04:34:43.079Z,1009.3
2023-11-22T04:35:59.454Z,1009.3
2023-11-22T04:37:15.811Z,1009.3
2023-11-22T04:38:32.149Z,1009.3
2023-11-22T04:39:48.524Z,1009.3
2023-11-22T04:43:37.593Z,1009.3
2023-11-22T04:44:53.948Z,1009.3
2023-11-22T04:46:10.291Z,1009.2
2023-11-22T04:47:26.648Z,1009.2
2023-11-22T04:48:43.002Z,1009.3
2023-11-22T04:51:15.844Z,1009.3
2023-11-22T04:52:32.195Z,1009.4
2023-11-22T04:55:04.923Z,1009.5
2023-11-22T04:56:21.284Z,1009.5
2023-11-22T04:57:37.637Z,1009.5
2023-11-22T04:58:53.984Z,1009.5
2023-11-22T05:00:10.349Z,1009.4
2023-11-22T05:01:26.694Z,1009.6
2023-11-22T05:02:43.057Z,1009.5
2023-11-22T05:03:59.413Z,1009.6
2023-11-22T05:05:15.777Z,1009.5
2023-11-22T05:06:32.135Z,1009.6
2023-11-22T05:07:47.526Z,1009.7
2023-11-22T05:09:03.879Z,1009.7
2023-11-22T05:10:20.242Z,1009.7
2023-11-22T05:12:52.961Z,1009.8
2023-11-22T05:14:09.320Z,1009.8
2023-11-22T05:16:42.022Z,1009.9
2023-11-22T05:17:58.392Z,1009.9
2023-11-22T05:19:14.747Z,1009.9
2023-11-22T05:20:31.092Z,1009.9
2023-11-22T05:21:47.454Z,1009.9
2023-11-22T05:24:20.170Z,1009.9
2023-11-22T05:25:36.537Z,1009.9
2023-11-22T05:26:51.930Z,1010
2023-11-22T05:28:08.296Z,1010
2023-11-22T05:29:24.649Z,1010
2023-11-22T05:30:41.006Z,1010
2023-11-22T05:31:57.361Z,1010
2023-11-22T05:33:13.710Z,1010
2023-11-22T05:34:30.071Z,1010
2023-11-22T05:35:46.438Z,1010
2023-11-22T05:37:02.789Z,1010.1
2023-11-22T05:39:35.502Z,1010.1
2023-11-22T05:40:51.865Z,1010.1
2023-11-22T05:42:08.221Z,1010.2
2023-11-22T05:43:23.614Z,1010.1
2023-11-22T05:45:56.325Z,1010.2
2023-11-22T05:47:12.695Z,1010.2
2023-11-22T05:48:29.045Z,1010.2
2023-11-22T05:49:45.405Z,1010.2
2023-11-22T05:51:01.756Z,1010.2
2023-11-22T05:52:18.115Z,1010.4
2023-11-22T05:53:34.481Z,1010.4
2023-11-22T05:54:50.838Z,1010.4
2023-11-22T05:57:23.544Z,1010.5
2023-11-22T05:58:39.906Z,1010.5
2023-11-22T05:59:56.263Z,1010.6
2023-11-22T06:01:11.664Z,1010.5
2023-11-22T06:03:44.319Z,1010.6
2023-11-22T06:05:00.642Z,1010.6
2023-11-22T06:06:16.928Z,1010.6
2023-11-22T06:07:33.228Z,1010.6
2023-11-22T06:08:49.592Z,1010.6
2023-11-22T06:10:05.911Z,1010.6
2023-11-22T06:11:22.216Z,1010.5
2023-11-22T06:12:38.519Z,1010.5
2023-11-22T06:13:54.814Z,1010.4
2023-11-22T06:15:11.112Z,1010.4
2023-11-22T06:16:27.426Z,1010.5
2023-11-22T06:18:59.079Z,1010.5
2023-11-22T06:20:15.390Z,1010.5
2023-11-22T06:21:31.680Z,1010.5
2023-11-22T06:22:47.988Z,1010.4
2023-11-22T06:25:20.587Z,1010.4
2023-11-22T06:26:36.886Z,1010.5
2023-11-22T06:27:53.193Z,1010.4
2023-11-22T06:29:09.495Z,1010.4
2023-11-22T06:31:42.100Z,1010.5
2023-11-22T06:32:58.397Z,1010.5
2023-11-22T06:34:14.720Z,1010.6
2023-11-22T06:36:46.361Z,1010.8
2023-11-22T06:38:02.656Z,1010.8
2023-11-22T06:39:18.973Z,1010.8
2023-11-22T06:40:35.272Z,1010.8
2023-11-22T06:41:51.581Z,1010.8
2023-11-22T06:43:06.938Z,1010.8
2023-11-22T06:45:39.531Z,1010.9
2023-11-22T06:46:55.838Z,1010.9
2023-11-22T06:48:12.145Z,1010.9
2023-11-22T06:49:28.453Z,1010.9
2023-11-22T06:50:44.763Z,1010.9
2023-11-22T06:52:01.066Z,1010.9
2023-11-22T06:53:17.367Z,1011
2023-11-22T06:54:33.658Z,1011
2023-11-22T06:55:49.967Z,1011.2
2023-11-22T06:57:06.266Z,1011.1
2023-11-22T07:00:55.180Z,1011.3
2023-11-22T07:02:10.521Z,1011.4
2023-11-22T07:03:26.832Z,1011.3
2023-11-22T07:04:43.131Z,1011.3
2023-11-22T07:05:59.424Z,1011.3
2023-11-22T07:07:15.748Z,1011.3
2023-11-22T07:08:32.041Z,1011.3
2023-11-22T07:09:48.339Z,1011.3
2023-11-22T07:11:04.647Z,1011.2
2023-11-22T07:12:20.940Z,1011.3
2023-11-22T07:13:37.261Z,1011.3
2023-11-22T07:14:53.555Z,1011.3
2023-11-22T07:16:09.849Z,1011.3
2023-11-22T07:17:26.153Z,1011.3
2023-11-22T07:19:57.811Z,1011.5
2023-11-22T07:21:14.110Z,1011.4
2023-11-22T07:22:30.408Z,1011.4
2023-11-22T07:23:46.729Z,1011.4
2023-11-22T07:25:03.034Z,1011.3
2023-11-22T07:26:19.336Z,1011.4
2023-11-22T07:27:34.703Z,1011.4
2023-11-22T07:28:50.060Z,1011.5
2023-11-22T07:30:06.344Z,1011.5
2023-11-22T07:31:22.649Z,1011.5
2023-11-22T07:32:38.958Z,1011.6
2023-11-22T07:35:11.563Z,1011.6
2023-11-22T07:36:27.864Z,1011.5
2023-11-22T07:37:44.162Z,1011.6
2023-11-22T07:39:00.480Z,1011.6
2023-11-22T07:40:16.776Z,1011.6
2023-11-22T07:41:33.086Z,1011.7
2023-11-22T07:42:49.367Z,1011.6
2023-11-22T07:46:38.295Z,1011.7
2023-11-22T07:47:53.652Z,1011.8
2023-11-22T07:49:09.002Z,1011.8
2023-11-22T07:52:57.922Z,1011.8
2023-11-22T07:54:14.211Z,1011.9
2023-11-22T07:55:30.512Z,1011.9
2023-11-22T07:56:46.823Z,1011.9
2023-11-22T07:58:03.116Z,1011.9
2023-11-22T07:59:19.422Z,1011.9
2023-11-22T08:00:35.735Z,1012.1
2023-11-22T08:01:52.030Z,1012.1
2023-11-22T08:03:08.347Z,1012.1
2023-11-22T08:04:24.638Z,1012.1
2023-11-22T08:05:39.994Z,1012.1
2023-11-22T08:06:56.304Z,1012
2023-11-22T08:08:12.593Z,1012
2023-11-22T08:09:28.901Z,1011.9
2023-11-22T08:10:45.211Z,1011.9
2023-11-22T08:12:01.495Z,1011.9
2023-11-22T08:13:17.809Z,1011.8
2023-11-22T08:14:34.110Z,1011.8
2023-11-22T08:15:50.422Z,1011.8
2023-11-22T08:17:06.717Z,1011.8
2023-11-22T08:18:22.087Z,1011.8
2023-11-22T08:20:54.804Z,1011.9
2023-11-22T08:22:11.119Z,1012
2023-11-22T08:23:27.419Z,1011.9
2023-11-22T08:26:00.031Z,1011.9
2023-11-22T08:27:16.325Z,1011.9
2023-11-22T08:28:32.625Z,1011.8
2023-11-22T08:31:05.232Z,1011.8
2023-11-22T08:32:21.533Z,1011.7
2023-11-22T08:33:37.832Z,1011.7
2023-11-22T08:36:09.511Z,1011.6
2023-11-22T08:37:24.881Z,1011.6
2023-11-22T08:38:40.240Z,1011.6
2023-11-22T08:39:56.541Z,1011.6
2023-11-22T08:41:12.850Z,1011.6
2023-11-22T08:42:29.155Z,1011.6
2023-11-22T08:43:45.452Z,1011.7
2023-11-22T08:45:01.758Z,1011.7
2023-11-22T08:46:18.058Z,1011.6
2023-11-22T08:47:34.350Z,1011.6
2023-11-22T08:48:50.653Z,1011.6
2023-11-22T08:50:06.026Z,1011.6
2023-11-22T08:51:22.330Z,1011.6
2023-11-22T08:52:37.685Z,1011.6
2023-11-22T08:53:53.987Z,1011.5
2023-11-22T08:55:10.292Z,1011.4
2023-11-22T08:56:26.590Z,1011.4
2023-11-22T08:57:42.892Z,1011.5
2023-11-22T09:00:15.504Z,1011.5
2023-11-22T09:01:31.812Z,1011.5
2023-11-22T09:02:48.105Z,1011.5
2023-11-22T09:04:04.414Z,1011.5
2023-11-22T09:05:20.705Z,1011.6
2023-11-22T09:06:37.019Z,1011.5
2023-11-22T09:07:53.312Z,1011.6
2023-11-22T09:09:08.659Z,1011.5
2023-11-22T09:10:24.970Z,1011.5
2023-11-22T09:11:41.273Z,1011.7
2023-11-22T09:12:57.582Z,1011.6
2023-11-22T09:14:13.871Z,1011.6
2023-11-22T09:15:30.177Z,1011.6
2023-11-22T09:16:45.552Z,1011.7
2023-11-22T09:18:01.858Z,1011.6
2023-11-22T09:19:17.195Z,1011.7
2023-11-22T09:20:33.510Z,1011.7
2023-11-22T09:21:49.804Z,1011.8
2023-11-22T09:23:06.105Z,1011.8
2023-11-22T09:24:22.422Z,1011.9
2023-11-22T09:25:38.716Z,1011.9
2023-11-22T09:26:55.021Z,1011.9
2023-11-22T09:28:11.324Z,1011.9
2023-11-22T09:29:27.623Z,1012
2023-11-22T09:30:43.932Z,1012
2023-11-22T09:33:16.524Z,1012
2023-11-22T09:34:32.846Z,1012
2023-11-22T09:35:48.183Z,1012
2023-11-22T09:37:04.485Z,1012
2023-11-22T09:38:20.802Z,1012
2023-11-22T09:39:37.093Z,1012
2023-11-22T09:40:53.397Z,1012
2023-11-22T09:42:09.705Z,1012
2023-11-22T09:43:25.992Z,1012
2023-11-22T09:44:42.304Z,1011.9
2023-11-22T09:45:58.606Z,1011.9
2023-11-22T09:47:14.903Z,1011.9
2023-11-22T09:48:31.209Z,1011.9
2023-11-22T09:51:03.817Z,1011.8
2023-11-22T09:52:19.171Z,1011.8
2023-11-22T09:53:35.479Z,1011.7
2023-11-22T09:54:51.765Z,1011.6
2023-11-22T09:56:08.069Z,1011.6
2023-11-22T09:57:24.370Z,1011.6
2023-11-22T09:58:40.678Z,1011.7
2023-11-22T09:59:56.975Z,1011.7
2023-11-22T10:01:13.284Z,1011.6
2023-11-22T10:02:29.578Z,1011.6
2023-11-22T10:03:45.899Z,1011.5
2023-11-22T10:05:02.198Z,1011.6
2023-11-22T10:06:18.504Z,1011.6
2023-11-22T10:07:34.787Z,1011.6
2023-11-22T10:08:50.149Z,1011.6
2023-11-22T10:10:06.454Z,1011.6
2023-11-22T10:11:22.760Z,1011.5
2023-11-22T10:12:39.051Z,1011.5
2023-11-22T10:13:55.362Z,1011.4
2023-11-22T10:15:11.660Z,1011.4
2023-11-22T10:16:27.973Z,1011.4
2023-11-22T10:17:44.273Z,1011.4
2023-11-22T10:19:00.568Z,1011.4
2023-11-22T10:20:16.878Z,1011.4
2023-11-22T10:21:33.165Z,1011.4
2023-11-22T10:22:49.465Z,1011.5
2023-11-22T10:25:22.090Z,1011.5
2023-11-22T10:26:37.437Z,1011.5
2023-11-22T10:27:53.738Z,1011.5
2023-11-22T10:29:10.027Z,1011.5
2023-11-22T10:31:42.633Z,1011.5
2023-11-22T10:32:58.934Z,1011.6
2023-11-22T10:34:15.241Z,1011.7
2023-11-22T10:35:31.556Z,1011.7
2023-11-22T10:36:47.845Z,1011.8
2023-11-22T10:38:04.143Z,1011.8
2023-11-22T10:39:20.448Z,1011.9
2023-11-22T10:40:36.766Z,1011.8
2023-11-22T10:44:25.676Z,1011.8
2023-11-22T10:45:41.962Z,1011.8
2023-11-22T10:46:57.346Z,1011.9
2023-11-22T10:48:13.761Z,1011.9
2023-11-22T10:49:30.067Z,1011.9
2023-11-22T10:50:46.363Z,1012
2023-11-22T10:52:02.675Z,1012
2023-11-22T10:54:35.285Z,1012.1
2023-11-22T10:55:51.573Z,1012.1
2023-11-22T10:57:07.883Z,1012.2
2023-11-22T10:58:23.237Z,1012.2
2023-11-22T10:59:39.541Z,1012.2
2023-11-22T11:00:55.844Z,1012.2
2023-11-22T11:02:12.150Z,1012.1
2023-11-22T11:03:28.451Z,1012.2
2023-11-22T11:04:44.758Z,1012.2
2023-11-22T11:06:01.061Z,1012.1
2023-11-22T11:07:17.366Z,1012.1
2023-11-22T11:08:33.671Z,1012.1
2023-11-22T11:11:06.262Z,1012.2
2023-11-22T11:12:21.630Z,1012.2
2023-11-22T11:13:36.992Z,1012.2
2023-11-22T11:14:53.301Z,1012.3
2023-11-22T11:16:09.593Z,1012.3
2023-11-22T11:17:25.896Z,1012.2
2023-11-22T11:18:42.199Z,1012.2
2023-11-22T11:19:58.501Z,1012.3
2023-11-22T11:21:14.791Z,1012.3
2023-11-22T11:22:31.105Z,1012.3
2023-11-22T11:23:47.402Z,1012.4
2023-11-22T11:25:02.783Z,1012.4
2023-11-22T11:26:18.120Z,1012.4
2023-11-22T11:27:34.435Z,1012.4
2023-11-22T11:28:50.735Z,1012.4
2023-11-22T11:30:07.044Z,1012.4
2023-11-22T11:31:23.339Z,1012.4
2023-11-22T11:32:39.630Z,1012.3
2023-11-22T11:33:55.941Z,1012.4
2023-11-22T11:35:12.240Z,1012.5
2023-11-22T11:36:28.539Z,1012.6
2023-11-22T11:37:43.927Z,1012.6
2023-11-22T11:39:00.227Z,1012.5
2023-11-22T11:40:15.566Z,1012.4
2023-11-22T11:41:31.881Z,1012.4
2023-11-22T11:42:48.173Z,1012.3
2023-11-22T11:44:04.487Z,1012.2
2023-11-22T11:45:20.779Z,1012.1
2023-11-22T11:46:37.074Z,1012
2023-11-22T11:47:53.379Z,1011.9
2023-11-22T11:49:09.680Z,1011.9
2023-11-22T11:50:25.988Z,1011.9
2023-11-22T11:51:42.287Z,1012
2023-11-22T11:52:58.594Z,1012
2023-11-22T11:54:14.900Z,1012
2023-11-22T11:55:31.199Z,1012
2023-11-22T11:56:46.552Z,1012
2023-11-22T11:58:02.853Z,1012
2023-11-22T11:59:19.163Z,1012
2023-11-22T12:00:35.462Z,1012.1
2023-11-22T12:01:51.767Z,1012.1
2023-11-22T12:03:08.064Z,1012.1
2023-11-22T12:04:24.369Z,1012.1
2023-11-22T12:05:40.670Z,1012.1
2023-11-22T12:06:56.969Z,1012.1
2023-11-22T12:08:13.272Z,1012.1
2023-11-22T12:09:29.580Z,1012
2023-11-22T12:10:45.886Z,1011.9
2023-11-22T12:12:02.192Z,1011.8
2023-11-22T12:13:17.533Z,1011.8
2023-11-22T12:14:33.841Z,1011.9
2023-11-22T12:15:50.145Z,1011.9
2023-11-22T12:17:06.446Z,1011.9
2023-11-22T12:18:22.733Z,1011.9
2023-11-22T12:19:39.045Z,1011.8
2023-11-22T12:20:55.344Z,1011.7
2023-11-22T12:24:44.260Z,1011.7
2023-11-22T12:26:00.564Z,1011.7
2023-11-22T12:27:16.861Z,1011.7
2023-11-22T12:28:33.171Z,1011.7
2023-11-22T12:29:48.525Z,1011.6
2023-11-22T12:31:04.817Z,1011.5
2023-11-22T12:32:21.117Z,1011.5
2023-11-22T12:33:37.424Z,1011.4
2023-11-22T12:34:53.738Z,1011.4
2023-11-22T12:36:10.026Z,1011.3
2023-11-22T12:37:26.330Z,1011.3
2023-11-22T12:38:42.643Z,1011.4
2023-11-22T12:39:58.937Z,1011.4
2023-11-22T12:41:15.239Z,1011.4
2023-11-22T12:42:31.536Z,1011.4
2023-11-22T12:43:47.851Z,1011.5
2023-11-22T12:45:04.148Z,1011.4
2023-11-22T12:46:19.508Z,1011.4
2023-11-22T12:47:35.808Z,1011.3
2023-11-22T12:48:52.106Z,1011.2
2023-11-22T12:50:08.405Z,1011.1
2023-11-22T12:51:24.700Z,1011.1
2023-11-22T12:52:41.023Z,1011
2023-11-22T12:53:57.313Z,1011
2023-11-22T12:55:13.618Z,1011
2023-11-22T12:56:29.911Z,1011
2023-11-22T12:57:46.219Z,1011
2023-11-22T12:59:02.521Z,1010.9
2023-11-22T13:00:18.837Z,1010.9
2023-11-22T13:01:35.125Z,1010.9
2023-11-22T13:02:50.476Z,1010.9
2023-11-22T13:04:06.780Z,1010.9
2023-11-22T13:05:23.080Z,1010.9
2023-11-22T13:06:39.385Z,1010.9
2023-11-22T13:07:55.684Z,1010.9
2023-11-22T13:09:11.997Z,1010.9
2023-11-22T13:11:44.598Z,1011
2023-11-22T13:13:00.898Z,1011.1
2023-11-22T13:14:17.198Z,1011.3
2023-11-22T13:15:33.513Z,1011.3
2023-11-22T13:16:49.803Z,1011.4
2023-11-22T13:18:06.104Z,1011.5
2023-11-22T13:19:21.465Z,1011.5
2023-11-22T13:20:37.766Z,1011.6
2023-11-22T13:21:54.065Z,1011.6
2023-11-22T13:23:10.366Z,1011.7
2023-11-22T13:24:26.681Z,1011.7
2023-11-22T13:25:42.973Z,1011.7
2023-11-22T13:26:59.272Z,1011.7
2023-11-22T13:28:15.572Z,1011.7
2023-11-22T13:29:31.881Z,1011.7
2023-11-22T13:30:48.187Z,1011.6
2023-11-22T13:32:04.498Z,1011.6
2023-11-22T13:33:20.790Z,1011.6
2023-11-22T13:34:37.089Z,1011.7
2023-11-22T13:35:52.000Z,1011.8
2023-11-22T13:37:08.755Z,1011.8
2023-11-22T13:38:25.048Z,1011.7
2023-11-22T13:39:41.349Z,1011.7
2023-11-22T13:40:57.646Z,1011.6
2023-11-22T13:42:13.950Z,1011.6
2023-11-22T13:43:30.260Z,1011.6
2023-11-22T13:46:02.865Z,1011.6
2023-11-22T13:47:19.172Z,1011.5
2023-11-22T13:48:35.460Z,1011.5
2023-11-22T13:49:51.760Z,1011.4
2023-11-22T13:51:08.071Z,1011.4
2023-11-22T13:52:24.376Z,1011.4
2023-11-22T13:53:39.721Z,1011.4
2023-11-22T13:54:56.021Z,1011.4
2023-11-22T13:56:12.339Z,1011.4
2023-11-22T13:57:28.635Z,1011.4
2023-11-22T13:58:44.948Z,1011.4
2023-11-22T14:00:01.244Z,1011.4
2023-11-22T14:02:33.842Z,1011.3
2023-11-22T14:03:50.143Z,1011.3
2023-11-22T14:05:06.457Z,1011.3
2023-11-22T14:06:22.757Z,1011.3
2023-11-22T14:07:39.050Z,1011.3
2023-11-22T14:08:55.363Z,1011.3
2023-11-22T14:10:10.707Z,1011.3
2023-11-22T14:11:26.999Z,1011.3
2023-11-22T14:13:59.618Z,1011.2
2023-11-22T14:15:15.907Z,1011.2
2023-11-22T14:16:32.229Z,1011.1
2023-11-22T14:17:48.525Z,1011.1
2023-11-22T14:19:04.826Z,1011
2023-11-22T14:20:21.126Z,1011.1
2023-11-22T14:21:37.436Z,1011.1
2023-11-22T14:22:53.741Z,1011.1
2023-11-22T14:24:10.031Z,1011
2023-11-22T14:25:26.327Z,1011
2023-11-22T14:26:41.695Z,1011
2023-11-22T14:27:57.990Z,1011
2023-11-22T14:29:14.290Z,1010.9
2023-11-22T14:30:30.000Z,1010.9
2023-11-22T14:31:46.894Z,1010.9
2023-11-22T14:33:03.191Z,1010.9
2023-11-22T14:34:19.494Z,1010.9
2023-11-22T14:35:35.811Z,1010.9
2023-11-22T14:36:52.116Z,1010.9
2023-11-22T14:38:08.404Z,1010.9
2023-11-22T14:39:24.718Z,1010.9
2023-11-22T14:40:41.007Z,1010.8
2023-11-22T14:41:57.309Z,1010.8
2023-11-22T14:43:12.661Z,1010.8
2023-11-22T14:44:28.970Z,1010.9
2023-11-22T14:45:45.262Z,1010.9
2023-11-22T14:48:17.869Z,1011.3
2023-11-22T14:49:34.183Z,1011.4
2023-11-22T14:50:50.481Z,1011.4
2023-11-22T14:52:06.787Z,1011.5
2023-11-22T14:54:39.386Z,1011.4
2023-11-22T14:55:55.683Z,1011.4
2023-11-22T14:57:12.002Z,1011.4
2023-11-22T14:58:28.294Z,1011.3
2023-11-22T14:59:43.646Z,1011.3
2023-11-22T15:00:59.945Z,1011.4
2023-11-22T15:02:16.253Z,1011.4
2023-11-22T15:03:32.552Z,1011.4
2023-11-22T15:06:05.158Z,1011.4
2023-11-22T15:07:20.534Z,1011.5
2023-11-22T15:08:35.877Z,1011.5
2023-11-22T15:09:52.186Z,1011.4
2023-11-22T15:11:08.484Z,1011.4
2023-11-22T15:12:24.790Z,1011.4
2023-11-22T15:13:41.216Z,1011.5
2023-11-22T15:14:57.520Z,1011.5
2023-11-22T15:16:13.826Z,1011.5
2023-11-22T15:17:30.111Z,1011.5
2023-11-22T15:18:46.433Z,1011.5
2023-11-22T15:20:01.794Z,1011.5
2023-11-22T15:21:17.133Z,1011.6
2023-11-22T15:23:49.750Z,1011.7
2023-11-22T15:25:06.058Z,1011.6
2023-11-22T15:26:22.366Z,1011.6
2023-11-22T15:28:54.964Z,1011.4
2023-11-22T15:30:11.268Z,1011.4
2023-11-22T15:31:27.559Z,1011.3
2023-11-22T15:34:00.176Z,1011.2
2023-11-22T15:35:16.470Z,1011.2
2023-11-22T15:36:31.833Z,1011.2
2023-11-22T15:37:47.193Z,1011.1
2023-11-22T15:40:19.798Z,1011.2
2023-11-22T15:41:36.095Z,1011.1
2023-11-22T15:42:52.423Z,1011.1
2023-11-22T15:44:08.766Z,1011.2
2023-11-22T15:47:57.834Z,1011.2
2023-11-22T15:49:14.205Z,1011.3
2023-11-22T15:50:30.544Z,1011.3
2023-11-22T15:53:03.272Z,1011.3
2023-11-22T15:54:18.682Z,1011.3
2023-11-22T15:55:34.089Z,1011.4
2023-11-22T15:56:50.451Z,1011.4
2023-11-22T15:58:06.817Z,1011.4
2023-11-22T15:59:23.154Z,1011.4
2023-11-22T16:00:39.513Z,1011.3
2023-11-22T16:03:12.228Z,1011.2
2023-11-22T16:04:28.588Z,1011.2
2023-11-22T16:05:44.956Z,1011.3
2023-11-22T16:07:01.305Z,1011.3
2023-11-22T16:08:17.649Z,1011.3
2023-11-22T16:09:34.018Z,1011.2
2023-11-22T16:10:50.377Z,1011.2
2023-11-22T16:12:05.777Z,1011.2
2023-11-22T16:13:22.139Z,1011.3
2023-11-22T16:14:38.480Z,1011.3
2023-11-22T16:15:54.840Z,1011.3
2023-11-22T16:17:11.213Z,1011.5
2023-11-22T16:18:27.555Z,1011.5
2023-11-22T16:19:43.921Z,1011.5
2023-11-22T16:21:00.279Z,1011.4
2023-11-22T16:22:15.691Z,1011.4
2023-11-22T16:23:31.108Z,1011.3
2023-11-22T16:26:03.815Z,1011.3
2023-11-22T16:27:20.163Z,1011.4
2023-11-22T16:28:36.523Z,1011.4
2023-11-22T16:31:09.237Z,1011.3
2023-11-22T16:32:25.604Z,1011.3
2023-11-22T16:33:41.954Z,1011.3
2023-11-22T16:34:58.313Z,1011.3
2023-11-22T16:37:31.019Z,1011.3
2023-11-22T16:40:02.804Z,1011.4
2023-11-22T16:42:34.577Z,1011.3
2023-11-22T16:43:50.010Z,1011.5
2023-11-22T16:45:05.406Z,1011.4
2023-11-22T16:46:21.763Z,1011.4
2023-11-22T16:48:54.487Z,1011.4
2023-11-22T16:50:10.849Z,1011.4
2023-11-22T16:51:27.195Z,1011.3
2023-11-22T16:53:59.905Z,1011.3
2023-11-22T16:55:16.272Z,1011.3
2023-11-22T16:56:32.628Z,1011.2
2023-11-22T16:57:48.971Z,1011.3
2023-11-22T16:59:05.341Z,1011.2
2023-11-22T17:00:21.680Z,1011.3
2023-11-22T17:01:37.094Z,1011.2
2023-11-22T17:06:42.521Z,1011.1
2023-11-22T17:07:58.878Z,1011.1
2023-11-22T17:09:15.237Z,1011
2023-11-22T17:11:47.944Z,1011
2023-11-22T17:13:04.293Z,1011
2023-11-22T17:14:20.659Z,1011
2023-11-22T17:16:53.376Z,1010.9
2023-11-22T17:18:09.726Z,1010.9
2023-11-22T17:19:25.139Z,1011
2023-11-22T17:20:41.481Z,1011
2023-11-22T17:21:57.839Z,1010.9
2023-11-22T17:23:14.201Z,1010.9
2023-11-22T17:24:30.562Z,1010.9
2023-11-22T17:27:03.279Z,1011
2023-11-22T17:28:19.626Z,1010.9
2023-11-22T17:29:35.986Z,1010.9
2023-11-22T17:30:52.337Z,1010.9
2023-11-22T17:32:08.688Z,1010.9
2023-11-22T17:33:25.060Z,1010.9
2023-11-22T17:34:41.421Z,1010.9
2023-11-22T17:35:56.806Z,1010.9
2023-11-22T17:37:13.167Z,1010.8
2023-11-22T17:38:29.529Z,1010.8
2023-11-22T17:39:45.889Z,1010.9
2023-11-22T17:41:02.240Z,1010.8
2023-11-22T17:42:18.596Z,1010.9
2023-11-22T17:43:34.022Z,1010.8
2023-11-22T17:44:49.427Z,1010.7
2023-11-22T17:46:05.777Z,1010.7
2023-11-22T17:47:22.136Z,1010.6
2023-11-22T17:48:38.504Z,1010.6
2023-11-22T17:51:11.218Z,1010.5
2023-11-22T17:52:27.566Z,1010.6
2023-11-22T17:53:43.912Z,1010.5
2023-11-22T17:57:32.996Z,1010.4
2023-11-22T17:58:49.346Z,1010.4
2023-11-22T18:00:04.778Z,1010.4
2023-11-22T18:02:37.483Z,1010.3
2023-11-22T18:03:52.881Z,1010.3
2023-11-22T18:05:09.253Z,1010.3
2023-11-22T18:06:25.606Z,1010.3
2023-11-22T18:07:41.964Z,1010.2
2023-11-22T18:08:58.309Z,1010.2
2023-11-22T18:10:14.673Z,1010.1
2023-11-22T18:11:31.019Z,1010.1
2023-11-22T18:14:03.735Z,1010
2023-11-22T18:15:20.099Z,1010
2023-11-22T18:16:36.000Z,1010
2023-11-22T18:17:52.804Z,1010.1
2023-11-22T18:20:25.524Z,1010.1
2023-11-22T18:21:42.001Z,1010.2
2023-11-22T18:22:58.355Z,1010.3
2023-11-22T18:25:31.082Z,1010.3
2023-11-22T18:26:47.428Z,1010.2
2023-11-22T18:28:03.792Z,1010.1
2023-11-22T18:29:20.133Z,1010
2023-11-22T18:31:52.848Z,1010.1
2023-11-22T18:33:09.220Z,1010.1